Time;durP1;ratioP1;P1;durP2;ratioP2;P2;SDS_P1;SDS_P2;PMS_P1;PMS_P2;Temp;Humidity;BMP_temperature;BMP_pressure;BME280_temperature;BME280_humidity;BME280_pressure;Samples;Min_cycle;Max_cycle;Signal;HPM_P1;HPM_P2
2019/08/26 00:00:24;;;;;;;12.85;11.65;;;;;;;15.93;100;95556.48;;;;
2019/08/26 00:01:27;;;;;;;12.85;11.65;;;;;;;15.93;100;95556.48;;;;
2019/08/26 00:02:29;;;;;;;12.85;11.65;;;;;;;15.93;100;95556.48;;;;
2019/08/26 00:03:31;;;;;;;12.85;11.65;;;;;;;15.93;100;95556.48;;;;
2019/08/26 00:04:33;;;;;;;12.85;11.65;;;;;;;15.93;100;95556.48;;;;
2019/08/26 00:05:34;;;;;;;12.85;11.65;;;;;;;15.93;100;95556.48;;;;
2019/08/26 00:06:36;;;;;;;12.85;11.65;;;;;;;15.93;100;95556.48;;;;
2019/08/26 00:07:39;;;;;;;12.85;11.65;;;;;;;15.93;100;95556.48;;;;
2019/08/26 00:08:40;;;;;;;12.85;11.65;;;;;;;15.93;100;95556.48;;;;
2019/08/26 00:09:42;;;;;;;12.85;11.65;;;;;;;15.86;100;95550.56;;;;
2019/08/26 00:10:44;;;;;;;12.85;11.65;;;;;;;15.86;100;95550.56;;;;
2019/08/26 00:11:46;;;;;;;12.85;11.65;;;;;;;15.86;100;95550.56;;;;
2019/08/26 00:12:47;;;;;;;12.85;11.65;;;;;;;15.86;100;95550.56;;;;
2019/08/26 00:13:48;;;;;;;12.85;11.65;;;;;;;15.86;100;95550.56;;;;
2019/08/26 00:14:50;;;;;;;12.85;11.65;;;;;;;15.86;100;95550.56;;;;
2019/08/26 00:15:52;;;;;;;12.85;11.65;;;;;;;15.86;100;95550.56;;;;
2019/08/26 00:17:15;;;;;;;12.85;11.65;;;;;;;15.86;100;95550.56;;;;
2019/08/26 00:18:17;;;;;;;12.85;11.65;;;;;;;15.86;100;95550.56;;;;
2019/08/26 00:19:19;;;;;;;12.85;11.65;;;;;;;15.86;100;95550.56;;;;
2019/08/26 00:20:20;;;;;;;13.05;11.75;;;;;;;15.76;100;95536.33;;;;
2019/08/26 00:21:22;;;;;;;13.05;11.75;;;;;;;15.76;100;95536.33;;;;
2019/08/26 00:22:24;;;;;;;13.05;11.75;;;;;;;15.76;100;95536.33;;;;
2019/08/26 00:23:25;;;;;;;13.05;11.75;;;;;;;15.76;100;95536.33;;;;
2019/08/26 00:24:27;;;;;;;13.05;11.75;;;;;;;15.76;100;95536.33;;;;
2019/08/26 00:25:28;;;;;;;13.05;11.75;;;;;;;15.76;100;95536.33;;;;
2019/08/26 00:26:30;;;;;;;13.05;11.75;;;;;;;15.76;100;95536.33;;;;
2019/08/26 00:27:31;;;;;;;13.05;11.75;;;;;;;15.76;100;95536.33;;;;
2019/08/26 00:28:33;;;;;;;13.05;11.75;;;;;;;15.76;100;95536.33;;;;
2019/08/26 00:29:34;;;;;;;13.05;11.75;;;;;;;15.76;100;95536.33;;;;
2019/08/26 00:30:35;;;;;;;13.15;11.6;;;;;;;15.76;100;95532.65;;;;
2019/08/26 00:31:37;;;;;;;13.15;11.6;;;;;;;15.76;100;95532.65;;;;
2019/08/26 00:32:39;;;;;;;13.15;11.6;;;;;;;15.76;100;95532.65;;;;
2019/08/26 00:33:40;;;;;;;13.15;11.6;;;;;;;15.76;100;95532.65;;;;
2019/08/26 00:34:41;;;;;;;13.15;11.6;;;;;;;15.76;100;95532.65;;;;
2019/08/26 00:35:42;;;;;;;13.15;11.6;;;;;;;15.76;100;95532.65;;;;
2019/08/26 00:36:43;;;;;;;13.15;11.6;;;;;;;15.76;100;95532.65;;;;
2019/08/26 00:37:45;;;;;;;13.15;11.6;;;;;;;15.76;100;95532.65;;;;
2019/08/26 00:38:47;;;;;;;13.15;11.6;;;;;;;15.76;100;95532.65;;;;
2019/08/26 00:39:48;;;;;;;13.15;11.6;;;;;;;15.76;100;95532.65;;;;
2019/08/26 00:40:49;;;;;;;13.4;12;;;;;;;15.67;100;95530.55;;;;
2019/08/26 00:41:51;;;;;;;13.4;12;;;;;;;15.67;100;95530.55;;;;
2019/08/26 00:42:52;;;;;;;13.4;12;;;;;;;15.67;100;95530.55;;;;
2019/08/26 00:43:53;;;;;;;13.4;12;;;;;;;15.67;100;95530.55;;;;
2019/08/26 00:44:55;;;;;;;13.4;12;;;;;;;15.67;100;95530.55;;;;
2019/08/26 00:45:56;;;;;;;13.4;12;;;;;;;15.67;100;95530.55;;;;
2019/08/26 00:46:57;;;;;;;13.4;12;;;;;;;15.67;100;95530.55;;;;
2019/08/26 00:47:59;;;;;;;13.4;12;;;;;;;15.67;100;95530.55;;;;
2019/08/26 00:49:00;;;;;;;13.4;12;;;;;;;15.67;100;95530.55;;;;
2019/08/26 00:50:01;;;;;;;13.4;12;;;;;;;15.67;100;95530.55;;;;
2019/08/26 00:51:04;;;;;;;13.4;12;;;;;;;15.67;100;95530.55;;;;
2019/08/26 00:52:05;;;;;;;12.65;11.3;;;;;;;15.69;100;95540.64;;;;
2019/08/26 00:53:07;;;;;;;12.65;11.3;;;;;;;15.69;100;95540.64;;;;
2019/08/26 00:54:12;;;;;;;12.65;11.3;;;;;;;15.69;100;95540.64;;;;
2019/08/26 00:55:13;;;;;;;12.65;11.3;;;;;;;15.69;100;95540.64;;;;
2019/08/26 00:56:15;;;;;;;12.65;11.3;;;;;;;15.69;100;95540.64;;;;
2019/08/26 00:57:17;;;;;;;12.65;11.3;;;;;;;15.69;100;95540.64;;;;
2019/08/26 00:58:18;;;;;;;12.65;11.3;;;;;;;15.69;100;95540.64;;;;
2019/08/26 01:00:29;;;;;;;12.65;11.3;;;;;;;15.69;100;95540.64;;;;
2019/08/26 01:01:31;;;;;;;12.65;11.3;;;;;;;15.69;100;95540.64;;;;
2019/08/26 01:02:44;;;;;;;12.55;11.2;;;;;;;15.65;100;95536.38;;;;
2019/08/26 01:03:46;;;;;;;12.55;11.2;;;;;;;15.65;100;95536.38;;;;
2019/08/26 01:04:47;;;;;;;12.55;11.2;;;;;;;15.65;100;95536.38;;;;
2019/08/26 01:05:48;;;;;;;12.55;11.2;;;;;;;15.65;100;95536.38;;;;
2019/08/26 01:06:50;;;;;;;12.55;11.2;;;;;;;15.65;100;95536.38;;;;
2019/08/26 01:07:51;;;;;;;12.55;11.2;;;;;;;15.65;100;95536.38;;;;
2019/08/26 01:08:53;;;;;;;12.55;11.2;;;;;;;15.65;100;95536.38;;;;
2019/08/26 01:09:54;;;;;;;12.55;11.2;;;;;;;15.65;100;95536.38;;;;
2019/08/26 01:10:56;;;;;;;12.55;11.2;;;;;;;15.65;100;95536.38;;;;
2019/08/26 01:11:57;;;;;;;12.55;11.2;;;;;;;15.65;100;95536.38;;;;
2019/08/26 01:12:59;;;;;;;12.75;11.5;;;;;;;15.59;100;95531.17;;;;
2019/08/26 01:14:00;;;;;;;12.75;11.5;;;;;;;15.59;100;95531.17;;;;
2019/08/26 01:15:02;;;;;;;12.75;11.5;;;;;;;15.59;100;95531.17;;;;
2019/08/26 01:16:04;;;;;;;12.75;11.5;;;;;;;15.59;100;95531.17;;;;
2019/08/26 01:17:06;;;;;;;12.75;11.5;;;;;;;15.59;100;95531.17;;;;
2019/08/26 01:18:08;;;;;;;12.75;11.5;;;;;;;15.59;100;95531.17;;;;
2019/08/26 01:19:09;;;;;;;12.75;11.5;;;;;;;15.59;100;95531.17;;;;
2019/08/26 01:20:11;;;;;;;12.75;11.5;;;;;;;15.59;100;95531.17;;;;
2019/08/26 01:21:13;;;;;;;12.75;11.5;;;;;;;15.59;100;95531.17;;;;
2019/08/26 01:22:14;;;;;;;12.75;11.5;;;;;;;15.59;100;95531.17;;;;
2019/08/26 01:23:16;;;;;;;12.65;11.4;;;;;;;15.46;100;95538.3;;;;
2019/08/26 01:24:17;;;;;;;12.65;11.4;;;;;;;15.46;100;95538.3;;;;
2019/08/26 01:25:18;;;;;;;12.65;11.4;;;;;;;15.46;100;95538.3;;;;
2019/08/26 01:26:20;;;;;;;12.65;11.4;;;;;;;15.46;100;95538.3;;;;
2019/08/26 01:27:21;;;;;;;12.65;11.4;;;;;;;15.46;100;95538.3;;;;
2019/08/26 01:28:22;;;;;;;12.65;11.4;;;;;;;15.46;100;95538.3;;;;
2019/08/26 01:29:23;;;;;;;12.65;11.4;;;;;;;15.46;100;95538.3;;;;
2019/08/26 01:30:25;;;;;;;12.65;11.4;;;;;;;15.46;100;95538.3;;;;
2019/08/26 01:31:26;;;;;;;12.65;11.4;;;;;;;15.46;100;95538.3;;;;
2019/08/26 01:32:28;;;;;;;12.65;11.4;;;;;;;15.46;100;95538.3;;;;
2019/08/26 01:33:29;;;;;;;12.65;11.4;;;;;;;15.46;100;95538.3;;;;
2019/08/26 01:34:30;;;;;;;12.25;11.05;;;;;;;15.4;100;95535.24;;;;
2019/08/26 01:35:32;;;;;;;12.25;11.05;;;;;;;15.4;100;95535.24;;;;
2019/08/26 01:36:37;;;;;;;12.25;11.05;;;;;;;15.4;100;95535.24;;;;
2019/08/26 01:37:38;;;;;;;12.25;11.05;;;;;;;15.4;100;95535.24;;;;
2019/08/26 01:38:40;;;;;;;12.25;11.05;;;;;;;15.4;100;95535.24;;;;
2019/08/26 01:39:41;;;;;;;12.25;11.05;;;;;;;15.4;100;95535.24;;;;
2019/08/26 01:40:42;;;;;;;12.25;11.05;;;;;;;15.4;100;95535.24;;;;
2019/08/26 01:41:44;;;;;;;12.25;11.05;;;;;;;15.4;100;95535.24;;;;
2019/08/26 01:42:46;;;;;;;12.25;11.05;;;;;;;15.4;100;95535.24;;;;
2019/08/26 01:43:47;;;;;;;12.25;11.05;;;;;;;15.4;100;95535.24;;;;
2019/08/26 01:44:48;;;;;;;13.8;12.35;;;;;;;15.25;100;95539.7;;;;
2019/08/26 01:45:49;;;;;;;13.8;12.35;;;;;;;15.25;100;95539.7;;;;
2019/08/26 01:46:51;;;;;;;13.8;12.35;;;;;;;15.25;100;95539.7;;;;
2019/08/26 01:47:53;;;;;;;13.8;12.35;;;;;;;15.25;100;95539.7;;;;
2019/08/26 01:48:55;;;;;;;13.8;12.35;;;;;;;15.25;100;95539.7;;;;
2019/08/26 01:49:56;;;;;;;13.8;12.35;;;;;;;15.25;100;95539.7;;;;
2019/08/26 01:50:58;;;;;;;13.8;12.35;;;;;;;15.25;100;95539.7;;;;
2019/08/26 01:51:59;;;;;;;13.8;12.35;;;;;;;15.25;100;95539.7;;;;
2019/08/26 01:53:00;;;;;;;13.8;12.35;;;;;;;15.25;100;95539.7;;;;
2019/08/26 01:54:02;;;;;;;13.8;12.35;;;;;;;15.25;100;95539.7;;;;
2019/08/26 01:55:04;;;;;;;12.85;11.55;;;;;;;15.18;100;95533.09;;;;
2019/08/26 01:56:06;;;;;;;12.85;11.55;;;;;;;15.18;100;95533.09;;;;
2019/08/26 01:57:07;;;;;;;12.85;11.55;;;;;;;15.18;100;95533.09;;;;
2019/08/26 01:58:08;;;;;;;12.85;11.55;;;;;;;15.18;100;95533.09;;;;
2019/08/26 01:59:10;;;;;;;12.85;11.55;;;;;;;15.18;100;95533.09;;;;
2019/08/26 02:00:11;;;;;;;12.85;11.55;;;;;;;15.18;100;95533.09;;;;
2019/08/26 02:01:13;;;;;;;12.85;11.55;;;;;;;15.18;100;95533.09;;;;
2019/08/26 02:02:15;;;;;;;12.85;11.55;;;;;;;15.18;100;95533.09;;;;
2019/08/26 02:03:16;;;;;;;12.85;11.55;;;;;;;15.18;100;95533.09;;;;
2019/08/26 02:04:18;;;;;;;12.85;11.55;;;;;;;15.18;100;95533.09;;;;
2019/08/26 02:05:19;;;;;;;12.85;11.55;;;;;;;15.18;100;95533.09;;;;
2019/08/26 02:06:21;;;;;;;12.05;10.85;;;;;;;15.09;100;95522.82;;;;
2019/08/26 02:07:22;;;;;;;12.05;10.85;;;;;;;15.09;100;95522.82;;;;
2019/08/26 02:08:24;;;;;;;12.05;10.85;;;;;;;15.09;100;95522.82;;;;
2019/08/26 02:09:25;;;;;;;12.05;10.85;;;;;;;15.09;100;95522.82;;;;
2019/08/26 02:10:26;;;;;;;12.05;10.85;;;;;;;15.09;100;95522.82;;;;
2019/08/26 02:11:28;;;;;;;12.05;10.85;;;;;;;15.09;100;95522.82;;;;
2019/08/26 02:12:29;;;;;;;12.05;10.85;;;;;;;15.09;100;95522.82;;;;
2019/08/26 02:13:30;;;;;;;12.05;10.85;;;;;;;15.09;100;95522.82;;;;
2019/08/26 02:14:32;;;;;;;12.05;10.85;;;;;;;15.09;100;95522.82;;;;
2019/08/26 02:15:33;;;;;;;12.05;10.85;;;;;;;15.09;100;95522.82;;;;
2019/08/26 02:16:47;;;;;;;12.15;10.95;;;;;;;15.14;100;95537.44;;;;
2019/08/26 02:17:48;;;;;;;12.15;10.95;;;;;;;15.14;100;95537.44;;;;
2019/08/26 02:18:50;;;;;;;12.15;10.95;;;;;;;15.14;100;95537.44;;;;
2019/08/26 02:19:51;;;;;;;12.15;10.95;;;;;;;15.14;100;95537.44;;;;
2019/08/26 02:20:52;;;;;;;12.15;10.95;;;;;;;15.14;100;95537.44;;;;
2019/08/26 02:21:54;;;;;;;12.15;10.95;;;;;;;15.14;100;95537.44;;;;
2019/08/26 02:22:55;;;;;;;12.15;10.95;;;;;;;15.14;100;95537.44;;;;
2019/08/26 02:23:57;;;;;;;12.15;10.95;;;;;;;15.14;100;95537.44;;;;
2019/08/26 02:24:58;;;;;;;12.15;10.95;;;;;;;15.14;100;95537.44;;;;
2019/08/26 02:26:00;;;;;;;12.15;10.95;;;;;;;15.14;100;95537.44;;;;
2019/08/26 02:27:01;;;;;;;12.9;11.4;;;;;;;15.08;100;95536.16;;;;
2019/08/26 02:28:03;;;;;;;12.9;11.4;;;;;;;15.08;100;95536.16;;;;
2019/08/26 02:29:04;;;;;;;12.9;11.4;;;;;;;15.08;100;95536.16;;;;
2019/08/26 02:30:06;;;;;;;12.9;11.4;;;;;;;15.08;100;95536.16;;;;
2019/08/26 02:31:08;;;;;;;12.9;11.4;;;;;;;15.08;100;95536.16;;;;
2019/08/26 02:32:10;;;;;;;12.9;11.4;;;;;;;15.08;100;95536.16;;;;
2019/08/26 02:33:11;;;;;;;12.9;11.4;;;;;;;15.08;100;95536.16;;;;
2019/08/26 02:34:13;;;;;;;12.9;11.4;;;;;;;15.08;100;95536.16;;;;
2019/08/26 02:35:14;;;;;;;12.9;11.4;;;;;;;15.08;100;95536.16;;;;
2019/08/26 02:36:16;;;;;;;12.9;11.4;;;;;;;15.08;100;95536.16;;;;
2019/08/26 02:37:17;;;;;;;12.55;11.35;;;;;;;15.04;100;95532.3;;;;
2019/08/26 02:38:19;;;;;;;12.55;11.35;;;;;;;15.04;100;95532.3;;;;
2019/08/26 02:39:20;;;;;;;12.55;11.35;;;;;;;15.04;100;95532.3;;;;
2019/08/26 02:40:21;;;;;;;12.55;11.35;;;;;;;15.04;100;95532.3;;;;
2019/08/26 02:41:23;;;;;;;12.55;11.35;;;;;;;15.04;100;95532.3;;;;
2019/08/26 02:42:25;;;;;;;12.55;11.35;;;;;;;15.04;100;95532.3;;;;
2019/08/26 02:43:26;;;;;;;12.55;11.35;;;;;;;15.04;100;95532.3;;;;
2019/08/26 02:44:29;;;;;;;12.55;11.35;;;;;;;15.04;100;95532.3;;;;
2019/08/26 02:45:31;;;;;;;12.55;11.35;;;;;;;15.04;100;95532.3;;;;
2019/08/26 02:46:33;;;;;;;12.55;11.35;;;;;;;15.04;100;95532.3;;;;
2019/08/26 02:47:35;;;;;;;12.55;11.35;;;;;;;15.04;100;95532.3;;;;
2019/08/26 02:48:38;;;;;;;13;11.6;;;;;;;14.91;100;95526.06;;;;
2019/08/26 02:49:39;;;;;;;13;11.6;;;;;;;14.91;100;95526.06;;;;
2019/08/26 02:50:41;;;;;;;13;11.6;;;;;;;14.91;100;95526.06;;;;
2019/08/26 02:51:46;;;;;;;13;11.6;;;;;;;14.91;100;95526.06;;;;
2019/08/26 02:52:47;;;;;;;13;11.6;;;;;;;14.91;100;95526.06;;;;
2019/08/26 02:53:49;;;;;;;13;11.6;;;;;;;14.91;100;95526.06;;;;
2019/08/26 02:54:50;;;;;;;13;11.6;;;;;;;14.91;100;95526.06;;;;
2019/08/26 02:55:52;;;;;;;13;11.6;;;;;;;14.91;100;95526.06;;;;
2019/08/26 02:56:53;;;;;;;13;11.6;;;;;;;14.91;100;95526.06;;;;
2019/08/26 02:57:54;;;;;;;13;11.6;;;;;;;14.91;100;95526.06;;;;
2019/08/26 02:58:56;;;;;;;18.2;12.15;;;;;;;14.87;100;95532.12;;;;
2019/08/26 02:59:57;;;;;;;18.2;12.15;;;;;;;14.87;100;95532.12;;;;
2019/08/26 03:00:58;;;;;;;18.2;12.15;;;;;;;14.87;100;95532.12;;;;
2019/08/26 03:02:16;;;;;;;18.2;12.15;;;;;;;14.87;100;95532.12;;;;
2019/08/26 03:03:18;;;;;;;18.2;12.15;;;;;;;14.87;100;95532.12;;;;
2019/08/26 03:04:19;;;;;;;18.2;12.15;;;;;;;14.87;100;95532.12;;;;
2019/08/26 03:05:20;;;;;;;18.2;12.15;;;;;;;14.87;100;95532.12;;;;
2019/08/26 03:06:22;;;;;;;18.2;12.15;;;;;;;14.87;100;95532.12;;;;
2019/08/26 03:07:23;;;;;;;18.2;12.15;;;;;;;14.87;100;95532.12;;;;
2019/08/26 03:08:24;;;;;;;18.2;12.15;;;;;;;14.87;100;95532.12;;;;
2019/08/26 03:09:25;;;;;;;12.9;11.6;;;;;;;14.87;100;95531.59;;;;
2019/08/26 03:10:26;;;;;;;12.9;11.6;;;;;;;14.87;100;95531.59;;;;
2019/08/26 03:11:28;;;;;;;12.9;11.6;;;;;;;14.87;100;95531.59;;;;
2019/08/26 03:12:29;;;;;;;12.9;11.6;;;;;;;14.87;100;95531.59;;;;
2019/08/26 03:13:31;;;;;;;12.9;11.6;;;;;;;14.87;100;95531.59;;;;
2019/08/26 03:14:32;;;;;;;12.9;11.6;;;;;;;14.87;100;95531.59;;;;
2019/08/26 03:15:33;;;;;;;12.9;11.6;;;;;;;14.87;100;95531.59;;;;
2019/08/26 03:16:35;;;;;;;12.9;11.6;;;;;;;14.87;100;95531.59;;;;
2019/08/26 03:17:36;;;;;;;12.9;11.6;;;;;;;14.87;100;95531.59;;;;
2019/08/26 03:18:37;;;;;;;12.9;11.6;;;;;;;14.87;100;95531.59;;;;
2019/08/26 03:19:38;;;;;;;12.9;11.6;;;;;;;14.87;100;95531.59;;;;
2019/08/26 03:20:39;;;;;;;11.9;10.7;;;;;;;15.02;100;95519.49;;;;
2019/08/26 03:22:13;;;;;;;11.9;10.7;;;;;;;15.02;100;95519.49;;;;
2019/08/26 03:23:14;;;;;;;11.9;10.7;;;;;;;15.02;100;95519.49;;;;
2019/08/26 03:24:15;;;;;;;11.9;10.7;;;;;;;15.02;100;95519.49;;;;
2019/08/26 03:25:16;;;;;;;11.9;10.7;;;;;;;15.02;100;95519.49;;;;
2019/08/26 03:26:18;;;;;;;11.9;10.7;;;;;;;15.02;100;95519.49;;;;
2019/08/26 03:27:19;;;;;;;11.9;10.7;;;;;;;15.02;100;95519.49;;;;
2019/08/26 03:28:20;;;;;;;11.9;10.7;;;;;;;15.02;100;95519.49;;;;
2019/08/26 03:29:22;;;;;;;11.9;10.7;;;;;;;15.02;100;95519.49;;;;
2019/08/26 03:30:23;;;;;;;11.4;10.15;;;;;;;15.05;100;95520.36;;;;
2019/08/26 03:36:26;;;;;;;11.4;10.15;;;;;;;15.05;100;95520.36;;;;
2019/08/26 03:37:27;;;;;;;11.4;10.15;;;;;;;15.05;100;95520.36;;;;
2019/08/26 03:38:28;;;;;;;11.4;10.15;;;;;;;15.05;100;95520.36;;;;
2019/08/26 03:39:30;;;;;;;11.4;10.15;;;;;;;15.05;100;95520.36;;;;
2019/08/26 03:40:31;;;;;;;11.4;10.15;;;;;;;15.05;100;95520.36;;;;
2019/08/26 03:41:43;;;;;;;10.75;9.65;;;;;;;15.09;100;95516.17;;;;
2019/08/26 03:43:11;;;;;;;10.75;9.65;;;;;;;15.09;100;95516.17;;;;
2019/08/26 03:44:12;;;;;;;10.75;9.65;;;;;;;15.09;100;95516.17;;;;
2019/08/26 03:45:13;;;;;;;10.75;9.65;;;;;;;15.09;100;95516.17;;;;
2019/08/26 03:46:17;;;;;;;10.75;9.65;;;;;;;15.09;100;95516.17;;;;
2019/08/26 03:47:18;;;;;;;10.75;9.65;;;;;;;15.09;100;95516.17;;;;
2019/08/26 03:48:20;;;;;;;10.75;9.65;;;;;;;15.09;100;95516.17;;;;
2019/08/26 03:49:21;;;;;;;10.75;9.65;;;;;;;15.09;100;95516.17;;;;
2019/08/26 03:50:22;;;;;;;10.75;9.65;;;;;;;15.09;100;95516.17;;;;
2019/08/26 03:51:25;;;;;;;10.75;9.65;;;;;;;15.09;100;95516.17;;;;
2019/08/26 03:52:26;;;;;;;10.55;9.4;;;;;;;15.06;100;95519.37;;;;
2019/08/26 03:53:27;;;;;;;10.55;9.4;;;;;;;15.06;100;95519.37;;;;
2019/08/26 03:54:28;;;;;;;10.55;9.4;;;;;;;15.06;100;95519.37;;;;
2019/08/26 03:55:29;;;;;;;10.55;9.4;;;;;;;15.06;100;95519.37;;;;
2019/08/26 03:56:31;;;;;;;10.55;9.4;;;;;;;15.06;100;95519.37;;;;
2019/08/26 03:57:32;;;;;;;10.55;9.4;;;;;;;15.06;100;95519.37;;;;
2019/08/26 03:58:34;;;;;;;10.55;9.4;;;;;;;15.06;100;95519.37;;;;
2019/08/26 03:59:35;;;;;;;10.55;9.4;;;;;;;15.06;100;95519.37;;;;
2019/08/26 04:00:36;;;;;;;10.55;9.4;;;;;;;15.06;100;95519.37;;;;
2019/08/26 04:01:39;;;;;;;10.55;9.4;;;;;;;15.06;100;95519.37;;;;
2019/08/26 04:02:41;;;;;;;10.55;9.449999;;;;;;;15.09;100;95520.25;;;;
2019/08/26 04:03:42;;;;;;;10.55;9.449999;;;;;;;15.09;100;95520.25;;;;
2019/08/26 04:04:43;;;;;;;10.55;9.449999;;;;;;;15.09;100;95520.25;;;;
2019/08/26 04:05:44;;;;;;;10.55;9.449999;;;;;;;15.09;100;95520.25;;;;
2019/08/26 04:06:45;;;;;;;10.55;9.449999;;;;;;;15.09;100;95520.25;;;;
2019/08/26 04:07:46;;;;;;;10.55;9.449999;;;;;;;15.09;100;95520.25;;;;
2019/08/26 04:08:47;;;;;;;10.55;9.449999;;;;;;;15.09;100;95520.25;;;;
2019/08/26 04:09:49;;;;;;;10.55;9.449999;;;;;;;15.09;100;95520.25;;;;
2019/08/26 04:10:50;;;;;;;10.55;9.449999;;;;;;;15.09;100;95520.25;;;;
2019/08/26 04:11:51;;;;;;;10.55;9.449999;;;;;;;15.09;100;95520.25;;;;
2019/08/26 04:12:52;;;;;;;10.95;9.700001;;;;;;;15.02;100;95526.29;;;;
2019/08/26 04:13:53;;;;;;;10.95;9.700001;;;;;;;15.02;100;95526.29;;;;
2019/08/26 04:14:54;;;;;;;10.95;9.700001;;;;;;;15.02;100;95526.29;;;;
2019/08/26 04:15:56;;;;;;;10.95;9.700001;;;;;;;15.02;100;95526.29;;;;
2019/08/26 04:16:57;;;;;;;10.95;9.700001;;;;;;;15.02;100;95526.29;;;;
2019/08/26 04:17:58;;;;;;;10.95;9.700001;;;;;;;15.02;100;95526.29;;;;
2019/08/26 04:18:59;;;;;;;10.95;9.700001;;;;;;;15.02;100;95526.29;;;;
2019/08/26 04:20:00;;;;;;;10.95;9.700001;;;;;;;15.02;100;95526.29;;;;
2019/08/26 04:21:03;;;;;;;10.95;9.700001;;;;;;;15.02;100;95526.29;;;;
2019/08/26 04:22:04;;;;;;;10.95;9.700001;;;;;;;15.02;100;95526.29;;;;
2019/08/26 04:23:05;;;;;;;10.95;9.700001;;;;;;;15.02;100;95526.29;;;;
2019/08/26 04:24:07;;;;;;;11.75;10.05;;;;;;;14.97;100;95527.61;;;;
2019/08/26 04:25:08;;;;;;;11.75;10.05;;;;;;;14.97;100;95527.61;;;;
2019/08/26 04:26:10;;;;;;;11.75;10.05;;;;;;;14.97;100;95527.61;;;;
2019/08/26 04:27:11;;;;;;;11.75;10.05;;;;;;;14.97;100;95527.61;;;;
2019/08/26 04:28:12;;;;;;;11.75;10.05;;;;;;;14.97;100;95527.61;;;;
2019/08/26 04:29:14;;;;;;;11.75;10.05;;;;;;;14.97;100;95527.61;;;;
2019/08/26 04:30:15;;;;;;;11.75;10.05;;;;;;;14.97;100;95527.61;;;;
2019/08/26 04:31:19;;;;;;;11.75;10.05;;;;;;;14.97;100;95527.61;;;;
2019/08/26 04:32:20;;;;;;;11.75;10.05;;;;;;;14.97;100;95527.61;;;;
2019/08/26 04:33:21;;;;;;;11.75;10.05;;;;;;;14.97;100;95527.61;;;;
2019/08/26 04:34:22;;;;;;;11.8;10.25;;;;;;;14.91;100;95531.91;;;;
2019/08/26 04:35:24;;;;;;;11.8;10.25;;;;;;;14.91;100;95531.91;;;;
2019/08/26 04:36:25;;;;;;;11.8;10.25;;;;;;;14.91;100;95531.91;;;;
2019/08/26 04:37:26;;;;;;;11.8;10.25;;;;;;;14.91;100;95531.91;;;;
2019/08/26 04:38:28;;;;;;;11.8;10.25;;;;;;;14.91;100;95531.91;;;;
2019/08/26 04:39:29;;;;;;;11.8;10.25;;;;;;;14.91;100;95531.91;;;;
2019/08/26 04:40:30;;;;;;;11.8;10.25;;;;;;;14.91;100;95531.91;;;;
2019/08/26 04:41:36;;;;;;;11.8;10.25;;;;;;;14.91;100;95531.91;;;;
2019/08/26 04:42:37;;;;;;;11.8;10.25;;;;;;;14.91;100;95531.91;;;;
2019/08/26 04:43:38;;;;;;;11.8;10.25;;;;;;;14.91;100;95531.91;;;;
2019/08/26 04:44:40;;;;;;;12.5;11.05;;;;;;;14.95;100;95540.78;;;;
2019/08/26 04:45:41;;;;;;;12.5;11.05;;;;;;;14.95;100;95540.78;;;;
2019/08/26 04:46:42;;;;;;;12.5;11.05;;;;;;;14.95;100;95540.78;;;;
2019/08/26 04:47:43;;;;;;;12.5;11.05;;;;;;;14.95;100;95540.78;;;;
2019/08/26 04:48:44;;;;;;;12.5;11.05;;;;;;;14.95;100;95540.78;;;;
2019/08/26 04:49:46;;;;;;;12.5;11.05;;;;;;;14.95;100;95540.78;;;;
2019/08/26 04:50:47;;;;;;;12.5;11.05;;;;;;;14.95;100;95540.78;;;;
2019/08/26 04:51:48;;;;;;;12.5;11.05;;;;;;;14.95;100;95540.78;;;;
2019/08/26 04:52:49;;;;;;;12.5;11.05;;;;;;;14.95;100;95540.78;;;;
2019/08/26 04:53:50;;;;;;;12.5;11.05;;;;;;;14.95;100;95540.78;;;;
2019/08/26 04:54:51;;;;;;;12.5;11.05;;;;;;;14.95;100;95540.78;;;;
2019/08/26 04:55:53;;;;;;;13.55;11.05;;;;;;;15.11;100;95545.14;;;;
2019/08/26 04:56:54;;;;;;;13.55;11.05;;;;;;;15.11;100;95545.14;;;;
2019/08/26 04:57:55;;;;;;;13.55;11.05;;;;;;;15.11;100;95545.14;;;;
2019/08/26 04:58:56;;;;;;;13.55;11.05;;;;;;;15.11;100;95545.14;;;;
2019/08/26 04:59:57;;;;;;;13.55;11.05;;;;;;;15.11;100;95545.14;;;;
2019/08/26 05:00:58;;;;;;;13.55;11.05;;;;;;;15.11;100;95545.14;;;;
2019/08/26 05:02:00;;;;;;;13.55;11.05;;;;;;;15.11;100;95545.14;;;;
2019/08/26 05:03:01;;;;;;;13.55;11.05;;;;;;;15.11;100;95545.14;;;;
2019/08/26 05:04:02;;;;;;;13.55;11.05;;;;;;;15.11;100;95545.14;;;;
2019/08/26 05:05:03;;;;;;;13.55;11.05;;;;;;;15.11;100;95545.14;;;;
2019/08/26 05:06:05;;;;;;;11;9.900001;;;;;;;15.51;100;95543.36;;;;
2019/08/26 05:07:06;;;;;;;11;9.900001;;;;;;;15.51;100;95543.36;;;;
2019/08/26 05:08:07;;;;;;;11;9.900001;;;;;;;15.51;100;95543.36;;;;
2019/08/26 05:09:09;;;;;;;11;9.900001;;;;;;;15.51;100;95543.36;;;;
2019/08/26 05:10:10;;;;;;;11;9.900001;;;;;;;15.51;100;95543.36;;;;
2019/08/26 05:11:12;;;;;;;11;9.900001;;;;;;;15.51;100;95543.36;;;;
2019/08/26 05:12:13;;;;;;;11;9.900001;;;;;;;15.51;100;95543.36;;;;
2019/08/26 05:13:14;;;;;;;11;9.900001;;;;;;;15.51;100;95543.36;;;;
2019/08/26 05:14:15;;;;;;;11;9.900001;;;;;;;15.51;100;95543.36;;;;
2019/08/26 05:15:16;;;;;;;11;9.900001;;;;;;;15.51;100;95543.36;;;;
2019/08/26 05:16:24;;;;;;;11;9.900001;;;;;;;15.51;100;95543.36;;;;
2019/08/26 05:17:25;;;;;;;10.4;9.35;;;;;;;15.93;100;95547.48;;;;
2019/08/26 05:18:26;;;;;;;10.4;9.35;;;;;;;15.93;100;95547.48;;;;
2019/08/26 05:19:27;;;;;;;10.4;9.35;;;;;;;15.93;100;95547.48;;;;
2019/08/26 05:20:28;;;;;;;10.4;9.35;;;;;;;15.93;100;95547.48;;;;
2019/08/26 05:21:30;;;;;;;10.4;9.35;;;;;;;15.93;100;95547.48;;;;
2019/08/26 05:22:31;;;;;;;10.4;9.35;;;;;;;15.93;100;95547.48;;;;
2019/08/26 05:23:32;;;;;;;10.4;9.35;;;;;;;15.93;100;95547.48;;;;
2019/08/26 05:24:33;;;;;;;10.4;9.35;;;;;;;15.93;100;95547.48;;;;
2019/08/26 05:25:35;;;;;;;10.4;9.35;;;;;;;15.93;100;95547.48;;;;
2019/08/26 05:26:36;;;;;;;10.4;9.35;;;;;;;15.93;100;95547.48;;;;
2019/08/26 05:27:37;;;;;;;9.849999;8.849999;;;;;;;16.51;100;95548.66;;;;
2019/08/26 05:28:38;;;;;;;9.849999;8.849999;;;;;;;16.51;100;95548.66;;;;
2019/08/26 05:29:39;;;;;;;9.849999;8.849999;;;;;;;16.51;100;95548.66;;;;
2019/08/26 05:30:41;;;;;;;9.849999;8.849999;;;;;;;16.51;100;95548.66;;;;
2019/08/26 05:31:43;;;;;;;9.849999;8.849999;;;;;;;16.51;100;95548.66;;;;
2019/08/26 05:32:44;;;;;;;9.849999;8.849999;;;;;;;16.51;100;95548.66;;;;
2019/08/26 05:33:45;;;;;;;9.849999;8.849999;;;;;;;16.51;100;95548.66;;;;
2019/08/26 05:34:47;;;;;;;9.849999;8.849999;;;;;;;16.51;100;95548.66;;;;
2019/08/26 05:35:48;;;;;;;9.849999;8.849999;;;;;;;16.51;100;95548.66;;;;
2019/08/26 05:36:50;;;;;;;9.849999;8.849999;;;;;;;16.51;100;95548.66;;;;
2019/08/26 05:37:51;;;;;;;8.75;7.850001;;;;;;;17.02;100;95559.17;;;;
2019/08/26 05:38:52;;;;;;;8.75;7.850001;;;;;;;17.02;100;95559.17;;;;
2019/08/26 05:39:54;;;;;;;8.75;7.850001;;;;;;;17.02;100;95559.17;;;;
2019/08/26 05:40:55;;;;;;;8.75;7.850001;;;;;;;17.02;100;95559.17;;;;
2019/08/26 05:41:56;;;;;;;8.75;7.850001;;;;;;;17.02;100;95559.17;;;;
2019/08/26 05:42:57;;;;;;;8.75;7.850001;;;;;;;17.02;100;95559.17;;;;
2019/08/26 05:43:58;;;;;;;8.75;7.850001;;;;;;;17.02;100;95559.17;;;;
2019/08/26 05:44:59;;;;;;;8.75;7.850001;;;;;;;17.02;100;95559.17;;;;
2019/08/26 05:46:00;;;;;;;8.75;7.850001;;;;;;;17.02;100;95559.17;;;;
2019/08/26 05:47:02;;;;;;;8.75;7.850001;;;;;;;17.02;100;95559.17;;;;
2019/08/26 05:48:03;;;;;;;8.75;7.850001;;;;;;;17.02;100;95559.17;;;;
2019/08/26 05:49:04;;;;;;;7.85;7.15;;;;;;;17.4;100;95553.23;;;;
2019/08/26 05:50:05;;;;;;;7.85;7.15;;;;;;;17.4;100;95553.23;;;;
2019/08/26 05:51:08;;;;;;;7.85;7.15;;;;;;;17.4;100;95553.23;;;;
2019/08/26 05:52:10;;;;;;;7.85;7.15;;;;;;;17.4;100;95553.23;;;;
2019/08/26 05:53:11;;;;;;;7.85;7.15;;;;;;;17.4;100;95553.23;;;;
2019/08/26 05:54:13;;;;;;;7.85;7.15;;;;;;;17.4;100;95553.23;;;;
2019/08/26 05:55:14;;;;;;;7.85;7.15;;;;;;;17.4;100;95553.23;;;;
2019/08/26 05:56:22;;;;;;;7.85;7.15;;;;;;;17.4;100;95553.23;;;;
2019/08/26 05:57:23;;;;;;;7.85;7.15;;;;;;;17.4;100;95553.23;;;;
2019/08/26 05:58:25;;;;;;;7.85;7.15;;;;;;;17.4;100;95553.23;;;;
2019/08/26 05:59:26;;;;;;;8.2;7.3;;;;;;;17.71;100;95558.61;;;;
2019/08/26 06:00:27;;;;;;;8.2;7.3;;;;;;;17.71;100;95558.61;;;;
2019/08/26 06:01:28;;;;;;;8.2;7.3;;;;;;;17.71;100;95558.61;;;;
2019/08/26 06:02:30;;;;;;;8.2;7.3;;;;;;;17.71;100;95558.61;;;;
2019/08/26 06:03:31;;;;;;;8.2;7.3;;;;;;;17.71;100;95558.61;;;;
2019/08/26 06:04:33;;;;;;;8.2;7.3;;;;;;;17.71;100;95558.61;;;;
2019/08/26 06:05:34;;;;;;;8.2;7.3;;;;;;;17.71;100;95558.61;;;;
2019/08/26 06:06:35;;;;;;;8.2;7.3;;;;;;;17.71;100;95558.61;;;;
2019/08/26 06:07:36;;;;;;;8.2;7.3;;;;;;;17.71;100;95558.61;;;;
2019/08/26 06:08:38;;;;;;;8.2;7.3;;;;;;;17.71;100;95558.61;;;;
2019/08/26 06:09:39;;;;;;;8.15;7.349999;;;;;;;18.14;100;95569.37;;;;
2019/08/26 06:10:41;;;;;;;8.15;7.349999;;;;;;;18.14;100;95569.37;;;;
2019/08/26 06:11:42;;;;;;;8.15;7.349999;;;;;;;18.14;100;95569.37;;;;
2019/08/26 06:12:43;;;;;;;8.15;7.349999;;;;;;;18.14;100;95569.37;;;;
2019/08/26 06:13:44;;;;;;;8.15;7.349999;;;;;;;18.14;100;95569.37;;;;
2019/08/26 06:14:45;;;;;;;8.15;7.349999;;;;;;;18.14;100;95569.37;;;;